FAMM/MBD METAR and TAF weather

Enter ICAO airport designator
Station Type Date Time Source
FAMM METAR 2020/12/05 06:00 UTC NOAA

FAMM 050600Z 06017KT 9999 OVC025 19/15 Q1021 NOSIG


Station Type Date Time Source
FAMM Decoded METAR 2020/12/05 06:00 UTC NOAA

Mafikeng Intl. Ad, South Africa (FAMM) 25-47S 025-32E 1300M
Dec 05, 2020 - 01:00 AM EST / 2020.12.05 0600 UTC
Wind: from the ENE (060 degrees) at 20 MPH (17 KT):0
Visibility: greater than 7 mile(s):0
Sky conditions: overcast
Temperature: 66 F (19 C)
Dew Point: 59 F (15 C)
Relative Humidity: 77%
Pressure (altimeter): 30.15 in. Hg (1021 hPa)
ob: FAMM 050600Z 06017KT 9999 OVC025 19/15 Q1021 NOSIG
cycle: 6

Station Type Date Time Source
FAMM TAF 2019/01/01 10:00 UTC NOAA

TAF FAMM 010900Z 0110/0118 04008KT 9999 BKN015
BECMG 0111/0113 34010KT BKN025 TX25/0113Z TN22/0118Z

Example: see airport list